Portada
METAR-TAF:

METAR-TAF

Aeroports :

General Santos, Filipines

latitud: 06-03-29N, longitud: 125-05-46E, altitud: 154 m

Observació

L'informe es va fer fa 14 hores i 39 minuts, a les 09:00 UTC
Vent 8 kt del Nord/Nord-Est
Temperatura 30°C
Humitat 59%
Pressió 1013 hPa
Visibilitat 10 km o més
Escasses núvols a una alçada de 1800 ft
Cel ennuvolat a una alçada de 8000 ft

METAR: RPMR 200900Z 02008KT 9999 FEW018 BKN080 30/21 Q1013 NOSIG RMK A2991

Hora: 07:39 (23:39 UTC)

Pronòstic

L'informe es va fer fa 39 minuts, a les 23:00 UTC
Pronòstic vàlid del 21 a les 00 UTC al 21 a les 24 UTC
Vent 6 kt del Nord/Nord-Est
Visibilitat 10 km o més
Escasses núvols a una alçada de 1800 ft
Temporalment
l' 21 a les 00 UTC al 21 a les 06 UTC
Vent 8 kt del Nord
Escasses núvols a una alçada de 1500 ft
Cel ennuvolat a una alçada de 8000 ft

TAF: RPMR 202300Z 2100/2124 02006KT 9999 FEW018 TEMPO 2100/2106 36008KT FEW015 BKN080

Observacions i pronòstics meteorològics de més de 4000 aeroports (METAR i TAF).

Les estacions disponibles són els punts grocs i vermells al mapa.

Posi el ratolí al punt desitjat per veure el nom de l'estació.

Feu clic per veure les observacions i els pronòstics meteorològics.

Per canviar el mapa: feu clic els botons verds amb una creu de color negre per apropar; al botó verd amb un guió per allunyar la imatge; o en les fletxes verdes per a mapes adjacents.


METAR-TAF: